Airfield :







YOU CAN JOIN US ON...

 
LOGIN :

Register | Disclaimer

   EN    FR    IT 

 









Legend :    VFR   Marginal VFR   IFR   Intensive IFR   Very Intensive IFR
Visi :
Ceiling :
>= 8 km
>= 3000ft
5 to 8 km
1000 to 3000 ft
1500m to 5 km
500 to 1000 ft
800 to 1500m
200 to 500 ft
< 800m
< 200 ft
Symbols :   Thunderstorms  Fog  Heavy snow  Heavy precipitations  Wind > 20 kt







- Airport Elevation : 787 ft
- IATA code : RUT


KRUT - Rutland - Southern Vermont Regional

CURRENT METAR :
  • 250256Z AUTO 00000KT 10SM OVC024 06/04 A2989 RMK AO2 SLP147 T00610039 50010 $

EXPIRED METARs :
  • 250156Z AUTO 34004KT 10SM OVC026 07/04 A2990 RMK AO2 SLP148 T00670039 $
  • 250127Z AUTO 32003KT 10SM OVC028 07/04 A2989 RMK AO2 $
  • 250056Z AUTO 28008KT 10SM OVC030 07/02 A2989 RMK AO2 SLP143 T00720022 $

TAF KRUT
Valid from the 25 at 00:00 until the 26 at 00:00 UTC


242322Z 2500/2524 29006KT P6SM OVC028
FM250400 14003KT P6SM OVC025
FM251300 30005KT P6SM SCT025 BKN070
KZBW FIR / North America



MET'MAP, your aeronautical weather chart ! - Copyright ORBIFLY December 2007 - Disclaimer

ORBIFLY MET'MAP TEAM :

Programming & Development : Alexandra Zaïnal
Concept & Development : Baudouin d'Aumeries
Co-Development & Prog : Marc-Olivier Méhu
Technical & hardware support : Manuel Goepfert

Contact : metmap@orbifly.com




SOURCES & CREDITS :

   NOAA